Los Angeles, CA (90089)

2:45 AM PST on December 10, 2016 (GMT -0800)
Los Angeles Downtown | | Change Station

Elev 184 ft 34.02 °N, 118.29 °W | Updated 58 minutes ago

Overcast
Overcast
57 °F
Feels Like 57 °F
N
0
Wind Variable Wind from North

Today
High -- | Low -- °F
--% Chance of Precip.
Yesterday
High -- | Low -- °F
Precip. -- in
Pressure 30.16 in
Visibility 4.0 miles
Clouds Overcast 800 ft
Dew Point 55 °F
Humidity 93%
Rainfall 0.00 in
Snow Depth Not available.
6:48 AM 4:44 PM
Waxing Gibbous, 82% visible
METAR KCQT 100947Z AUTO 00000KT 4SM BR OVC008 14/13 A3016 RMK AO2 SLP211 T01390128
Pressure 30.16 in
Visibility 4.0 miles
Clouds Overcast 800 ft
Dew Point 55 °F
Humidity 93%
Rainfall 0.00 in
Snow Depth Not available.
6:48 AM 4:44 PM
Waxing Gibbous, 82% visible
METAR KCQT 100947Z AUTO 00000KT 4SM BR OVC008 14/13 A3016 RMK AO2 SLP211 T01390128

10-Day Weather Forecast

Almanac

Astronomy

Dec. 10, 2016 Rise Set
Actual Time
Civil Twilight
Nautical Twilight
Astronomical Twilight
Moon
Length of Visible Light
Length of Day
Tomorrow will be .
, % of the Moon is Illuminated

Today's Extremes

State Highs State Lows

Community

WunderPhotos

Upload Photos

1,956,536 photos uploaded!

WunderBlog® & News

Nearby

Air Quality

  Air Quality AQ Index Pollutant
Not available.

Snow Depth

Station Depth Elevation

Earthquake Activity

City Distance Mag. Time & Date
Minimum magnitude displayed is 2.5.

Coastal Water Temperatures

Place Temperature

Stations

Nearby Weather Stations

Station Location Temp. Windchill Dew Point Humidity Wind Precip. Elev Updated Type
                   

Watches & Warnings

There are currently no watches in effect.